Flight Track Log - Related Links

Times and Time Zones

All times are in EST time to prevent confusion due to time zone crossing. See the UAL4462 flight status page for this flight to view local times or setup timezone preferences in your user account.


Time Position Orientation Groundspeed Altitude Reporting Facility
EST Latitude Longitude Course Direction KTS MPH feet Rate Location/Type
Thu 09:02:43 AM 52.1833 -106.8167 200° South 180 207 3,400  Level Winnipeg Center
Thu 09:03:43 AM 52.1500 -106.9000 237° Southwest 210 242 5,800 2,200 Climbing Winnipeg Center
Thu 09:04:43 AM 52.1000 -106.9333 202° Southwest 260 299 7,800 2,150 Climbing Winnipeg Center
Thu 09:05:43 AM 52.0333 -106.9500 189° South 280 322 10,100 2,050 Climbing Winnipeg Center
Thu 09:06:00 AM 51.6270 -106.5880 197° South  Level Estimated
Thu 09:06:43 AM 51.9500 -106.9833 194° South 300 345 11,900  Level Winnipeg Center
Thu 09:07:00 AM 51.5013 -106.5626 178° South  Level Estimated
Thu 09:07:43 AM 51.8667 -107.0167 194° South 340 391 13,200  Level Winnipeg Center
Thu 09:08:00 AM 51.3821 -106.6315 200° South  Level FlightAware Approximate
Thu 09:08:43 AM 51.7500 -107.0667 195° South 370 426 14,500  Level Winnipeg Center
Thu 09:09:43 AM 51.6500 -107.1333 202° Southwest 390 449 15,900 1,450 Climbing Winnipeg Center
Thu 09:10:43 AM 51.5667 -107.1667 194° South 390 449 17,400 1,450 Climbing Winnipeg Center
Thu 09:11:43 AM 51.4333 -107.2167 193° South 390 449 18,800 1,400 Climbing Winnipeg Center
Thu 09:12:43 AM 51.3333 -107.2500 192° South 400 460 20,200 1,450 Climbing Winnipeg Center
Thu 09:13:43 AM 51.2167 -107.2500 180° South 410 472 21,700 1,400 Climbing Winnipeg Center
Thu 09:14:43 AM 51.1000 -107.2500 180° South 420 483 23,000 1,150 Climbing Winnipeg Center
Thu 09:15:43 AM 51.0000 -107.2500 180° South 420 483 24,000 500 Climbing Winnipeg Center
Thu 09:16:43 AM 50.8667 -107.2500 180° South 440 506 24,000  Level Winnipeg Center
Thu 09:17:43 AM 50.7333 -107.2500 180° South 470 541 24,000  Level Winnipeg Center
Thu 09:18:43 AM 50.6000 -107.2500 180° South 470 541 24,000  Level Winnipeg Center
Thu 09:19:43 AM 50.4500 -107.2333 176° South 480 552 24,000  Level Winnipeg Center
Thu 09:20:43 AM 50.3167 -107.2333 180° South 480 552 24,000  Level Winnipeg Center
Thu 09:21:43 AM 50.1833 -107.2333 180° South 490 564 24,000  Level Winnipeg Center
Thu 09:22:43 AM 50.0500 -107.2333 180° South 480 552 24,000  Level Winnipeg Center
Thu 09:23:43 AM 49.9333 -107.2333 180° South 480 552 24,000  Level Winnipeg Center
Thu 09:24:43 AM 49.7833 -107.2167 176° South 480 552 24,000  Level Winnipeg Center
Thu 09:25:43 AM 49.6667 -107.2167 180° South 480 552 24,000  Level Winnipeg Center
Thu 09:26:43 AM 49.5167 -107.2167 180° South 480 552 24,000  Level Winnipeg Center
Thu 09:27:43 AM 49.4000 -107.1833 169° South 480 552 24,000  Level Winnipeg Center
Thu 09:28:43 AM 49.2667 -107.1833 180° South 470 541 24,000  Level Winnipeg Center
Thu 09:29:43 AM 49.1333 -107.1833 180° South 480 552 24,000  Level Winnipeg Center
Thu 09:30:43 AM 49.0000 -107.1833 180° South 480 552 24,000  Level Winnipeg Center
Thu 09:31:43 AM 48.8667 -107.1833 180° South 480 552 24,000  Level Winnipeg Center
Thu 09:32:53 AM 48.7592 -107.1600 172° South 476 548 24,000  Level Salt Lake Center
Thu 09:33:53 AM 48.6008 -107.1569 179° South 476 548 24,000  Level Salt Lake Center
Thu 09:34:54 AM 48.4694 -107.1531 179° South 475 547 24,000  Level Salt Lake Center
Thu 09:35:55 AM 48.3369 -107.1486 179° South 476 548 24,000  Level Salt Lake Center
Thu 09:36:56 AM 48.2058 -107.1464 179° South 475 547 24,000  Level Salt Lake Center
Thu 09:37:58 AM 48.0731 -107.1414 179° South 477 549 24,000  Level Salt Lake Center
Thu 09:38:59 AM 47.9400 -107.1386 179° South 478 550 24,000  Level Salt Lake Center
Thu 09:40:00 AM 47.8114 -107.1350 179° South 472 543 24,000  Level Salt Lake Center
Thu 09:41:01 AM 47.6800 -107.1319 179° South 473 544 24,000  Level Salt Lake Center
Thu 09:42:02 AM 47.5472 -107.1281 179° South 477 549 24,000  Level Salt Lake Center
Thu 09:43:03 AM 47.4150 -107.1253 179° South 477 549 24,000  Level Salt Lake Center
Thu 09:44:05 AM 47.2575 -107.1206 179° South 474 545 24,000  Level Salt Lake Center
Thu 09:45:06 AM 47.1250 -107.1178 179° South 476 548 24,000  Level Salt Lake Center
Thu 09:46:07 AM 46.9936 -107.1147 179° South 475 547 24,000  Level Salt Lake Center
Thu 09:47:08 AM 46.8722 -107.1122 179° South 475 547 24,000  Level Salt Lake Center
Thu 09:48:10 AM 46.7417 -107.1103 179° South 472 543 24,000  Level Salt Lake Center
Thu 09:49:11 AM 46.5825 -107.1036 178° South 476 548 24,000  Level Salt Lake Center
Thu 09:50:12 AM 46.4519 -107.1017 179° South 472 543 24,000  Level Salt Lake Center
Thu 09:51:14 AM 46.3200 -107.0981 179° South 474 545 24,000  Level Salt Lake Center
Thu 09:52:15 AM 46.1883 -107.0953 179° South 474 545 24,000  Level Salt Lake Center
Thu 09:53:16 AM 46.0564 -107.0911 179° South 474 545 24,000  Level Salt Lake Center
Thu 09:54:18 AM 45.9250 -107.0883 179° South 473 544 24,000  Level Salt Lake Center
Thu 09:55:19 AM 45.7936 -107.0836 179° South 473 544 24,000  Level Salt Lake Center
Thu 09:56:20 AM 45.6614 -107.0806 179° South 474 545 24,000  Level Salt Lake Center
Thu 09:57:22 AM 45.5294 -107.0767 179° South 474 545 24,000  Level Salt Lake Center
Thu 09:58:23 AM 45.3725 -107.0706 178° South 471 542 24,000  Level Salt Lake Center
Thu 09:59:25 AM 45.2414 -107.0678 179° South 470 541 24,000  Level Salt Lake Center
Thu 10:00:26 AM 45.1111 -107.0667 180° South 468 539 24,000  Level Salt Lake Center
Thu 10:01:28 AM 44.9797 -107.0625 179° South 469 540 24,000  Level Salt Lake Center
Thu 10:02:29 AM 44.8478 -107.0583 179° South 471 542 24,000  Level Salt Lake Center
Thu 10:03:31 AM 44.7172 -107.0283 171° South 475 547 24,000  Level Salt Lake Center
Thu 10:04:32 AM 44.5864 -106.9950 170° South 475 547 24,000  Level Salt Lake Center
Thu 10:05:34 AM 44.4556 -106.9628 170° South 476 548 24,000  Level Salt Lake Center
Thu 10:06:35 AM 44.3253 -106.9303 170° South 475 547 24,000  Level Salt Lake Center
Thu 10:07:37 AM 44.1942 -106.8992 170° South 477 549 24,000  Level Salt Lake Center
Thu 10:08:38 AM 44.0383 -106.8597 170° South 475 547 24,000  Level Salt Lake Center
Thu 10:09:40 AM 43.9086 -106.8308 171° South 479 551 24,000  Level Salt Lake Center
Thu 10:10:41 AM 43.7836 -106.8008 170° South 479 551 24,000  Level Salt Lake Center
Thu 10:11:43 AM 43.6414 -106.7619 169° South 469 540 24,000  Level Salt Lake Center
Thu 10:12:44 AM 43.5169 -106.7322 170° South 473 544 24,000  Level Salt Lake Center
Thu 10:13:46 AM 43.3944 -106.7022 170° South 469 540 24,000  Level Salt Lake Center
Thu 10:14:47 AM 43.2481 -106.6667 170° South 477 549 24,000  Level Salt Lake Center
Thu 10:15:49 AM 43.1228 -106.6372 170° South 478 550 24,000  Level Salt Lake Center
Thu 10:16:50 AM 42.9789 -106.6022 170° South 474 545 24,000  Level Salt Lake Center
Thu 10:17:58 AM 42.8317 -106.5656 170° South 480 552 24,000  Level Denver Center
Thu 10:19:00 AM 42.7039 -106.5358 170° South 485 558 24,000  Level Denver Center
Thu 10:20:02 AM 42.5553 -106.5000 170° South 488 562 24,000  Level Denver Center
Thu 10:21:03 AM 42.4272 -106.4692 170° South 488 562 24,000  Level Denver Center
Thu 10:22:05 AM 42.2781 -106.4347 170° South 487 560 24,000  Level Denver Center
Thu 10:23:07 AM 42.1506 -106.4053 170° South 487 560 24,000  Level Denver Center
Thu 10:24:08 AM 42.0006 -106.3700 170° South 490 564 24,000  Level Denver Center
Thu 10:25:10 AM 41.8736 -106.3406 170° South 488 562 24,000  Level Denver Center
Thu 10:26:12 AM 41.7236 -106.3061 170° South 489 563 24,000  Level Denver Center
Thu 10:27:14 AM 41.5953 -106.2750 170° South 490 564 24,000  Level Denver Center
Thu 10:28:15 AM 41.4678 -106.2456 170° South 488 562 24,000  Level Denver Center
Thu 10:29:17 AM 41.3231 -106.1867 163° South 487 560 24,000  Level Denver Center
Thu 10:30:19 AM 41.1939 -106.1764 177° South 494 568 24,000  Level Denver Center
Thu 10:31:21 AM 41.0736 -106.0747 147° Southeast 479 551 24,000  Level Denver Center
Thu 10:32:23 AM 40.9775 -105.9394 133° Southeast 487 560 24,000  Level Denver Center
Thu 10:33:25 AM 40.8825 -105.8119 135° Southeast 487 560 24,000 -435 Level Denver Center
Thu 10:34:27 AM 40.7889 -105.6886 135° Southeast 480 552 23,100 -1,210 Descending Denver Center
Thu 10:35:29 AM 40.6992 -105.5669 134° Southeast 467 537 21,500 -1,548 Descending Denver Center
Thu 10:36:31 AM 40.6158 -105.4544 134° Southeast 437 503 19,900 -1,597 Descending Denver Center
Thu 10:37:33 AM 40.5392 -105.3225 127° Southeast 383 441 18,200 -1,403 Descending Denver Center
Thu 10:38:35 AM 40.4853 -105.2150 123° Southeast 361 415 17,000 -1,355 Descending Denver Center
Thu 10:39:37 AM 40.4539 -105.0939 109° East 340 391 15,400 -1,161 Descending Denver Center
Thu 10:40:39 AM 40.4239 -104.9939 111° Southeast 300 345 14,600 -864 Descending Denver Center
Thu 10:41:42 AM 40.3878 -104.8883 114° Southeast 294 338 13,600 -1,152 Descending Denver Center
Thu 10:42:44 AM 40.3536 -104.7914 115° Southeast 293 337 12,200 -1,403 Descending Denver Center
Thu 10:43:46 AM 40.3056 -104.7042 126° Southeast 285 328 10,700 -1,452 Descending Denver Center
Thu 10:44:48 AM 40.2322 -104.6833 168° South 272 313 9,200 -1,403 Descending Denver Center
Thu 10:45:50 AM 40.1558 -104.6836 180° South 258 297 7,800 -1,016 Descending Denver Center
Thu 10:46:52 AM 40.0900 -104.6847 181° South 239 275 7,100 -387 Descending Denver Center
Thu 10:47:54 AM 40.0267 -104.6850 180° South 229 264 7,000 -194 Descending Denver Center
Thu 10:48:56 AM 39.9622 -104.6861 181° South 219 252 6,700 -576 Descending Denver Center
Thu 10:49:59 AM 39.9183 -104.6867 181° South 157 181 5,800 -624 Descending Denver Center
Thu 10:51:01 AM 39.8814 -104.6864 180° South 129 148 5,400 -387 Descending Denver Center

Login

Don't have an account? Register now (free) for customized features, flight alerts, and more!